• Join FlightAware (Why Join?)
  • Login
  • US Flag 
07:11AM EDT


 

Airport Tracker/Info


-or-


 

Live Flight TrackerFlight Track Log ✈ DAL2373 ✈ 12-Aug-2012 ✈ KATL - KMIA

Flight Track Log - Related Links

Times and Time Zones

All times are in EDT time to prevent confusion due to time zone crossing. See the DAL2373 flight status page for this flight to view local times or setup timezone preferences in your user account.

Time Position Orientation Groundspeed Altitude Reporting Facility
EDT Latitude Longitude Course Direction KTS MPH feet Rate Location/Type
01:32PM 33.6333 -84.5000 270° West 218 251 3,000  Level Atlanta TRACON
01:33PM 33.6333 -84.6000 202° Southwest 275 316 5,900 2,760 Climbing Atlanta TRACON
01:34PM 33.5569 -84.6372 145° Southeast 306 352 9,300 1,800 Climbing Atlanta Center
01:35PM 33.4822 -84.5742 129° Southeast 304 350 10,000 720 Climbing Atlanta Center
01:36PM 33.4136 -84.4719 128° Southeast 339 390 10,800 1,260 Climbing Atlanta Center
01:37PM 33.3408 -84.3619 129° Southeast 396 456 12,600 1,800 Climbing Atlanta Center
01:38PM 33.2639 -84.2475 129° Southeast 433 498 14,500 1,920 Climbing Atlanta Center
01:39PM 33.1889 -84.1356 141° Southeast 443 510 16,500 1,740 Climbing Atlanta Center
01:40PM 33.0928 -84.0439 146° Southeast 437 503 18,000 1,440 Climbing Atlanta Center
01:41PM 32.9886 -83.9597 146° Southeast 448 516 19,400 1,440 Climbing Atlanta Center
01:42PM 32.8819 -83.8756 146° Southeast 456 525 20,900 1,140 Climbing Atlanta Center
01:43PM 32.7733 -83.7869 146° Southeast 468 539 21,700 840 Climbing Atlanta Center
01:44PM 32.6603 -83.6958 146° Southeast 480 552 22,600 960 Climbing Atlanta Center
01:45PM 32.5431 -83.6028 145° Southeast 492 566 23,700 1,020 Climbing Atlanta Center
01:46PM 32.4300 -83.5097 147° Southeast 492 566 24,700 1,140 Climbing Atlanta Center
01:47PM 32.3106 -83.4169 147° Southeast 498 573 26,000 1,320 Climbing Atlanta Center
01:48PM 32.1953 -83.3269 146° Southeast 504 580 27,400 1,500 Climbing Atlanta Center
01:49PM 32.0842 -83.2397 145° Southeast 499 574 29,000 1,200 Climbing Atlanta Center
01:50PM 31.9492 -83.1300 147° Southeast 490 564 30,000 420 Climbing Jacksonville Center
01:51PM 31.8367 -83.0442 146° Southeast 490 564 30,000  Level Jacksonville Center
01:52PM 31.7281 -82.9586 146° Southeast 490 564 30,000  Level Jacksonville Center
01:53PM 31.6153 -82.8681 147° Southeast 490 564 30,000  Level Jacksonville Center
01:54PM 31.5025 -82.7831 146° Southeast 490 564 30,000  Level Jacksonville Center
01:55PM 31.3958 -82.7003 146° Southeast 480 552 30,000  Level Jacksonville Center
01:56PM 31.2956 -82.6203 147° Southeast 480 552 30,000  Level Jacksonville Center
01:57PM 31.1825 -82.5356 147° Southeast 485 558 30,000  Level Jacksonville Center
01:58PM 31.0717 -82.4511 147° Southeast 485 558 30,000  Level Jacksonville Center
01:59PM 30.9608 -82.3669 146° Southeast 485 558 30,000  Level Jacksonville Center
02:00PM 30.8497 -82.2803 147° Southeast 485 558 30,000  Level Jacksonville Center
02:01PM 30.7386 -82.1964 147° Southeast 485 558 30,000  Level Jacksonville Center
02:02PM 30.6253 -82.1103 145° Southeast 485 558 30,000  Level Jacksonville Center
02:03PM 30.5078 -82.0150 147° Southeast 485 558 30,000  Level Jacksonville Center
02:04PM 30.3944 -81.9292 147° Southeast 480 552 30,000  Level Jacksonville Center
02:05PM 30.2831 -81.8439 147° Southeast 486 559 30,000  Level Jacksonville Center
02:06PM 30.1739 -81.7608 149° Southeast 486 559 30,000  Level Jacksonville Center
02:07PM 30.0603 -81.6806 147° Southeast 486 559 30,000  Level Jacksonville Center
02:08PM 29.9508 -81.5981 146° Southeast 479 551 30,000  Level Jacksonville Center
02:09PM 29.8436 -81.5156 148° Southeast 474 545 30,000  Level Jacksonville Center
02:10PM 29.7342 -81.4383 147° Southeast 469 540 30,000  Level Jacksonville Center
02:11PM 29.6247 -81.3564 146° Southeast 469 540 30,000  Level Jacksonville Center
02:12PM 29.5172 -81.2744 145° Southeast 469 540 30,000  Level Jacksonville Center
02:13PM 29.4117 -81.1903 153° Southeast 464 534 30,000  Level Jacksonville Center
02:15PM 29.2089 -81.0739 162° South 473 544 30,000  Level Miami Center
02:16PM 29.0869 -81.0289 160° South 473 544 30,000  Level Miami Center
02:17PM 28.9675 -80.9792 140° Southeast 462 532 30,000  Level Miami Center
02:18PM 28.8581 -80.8733 133° Southeast 447 514 30,000  Level Miami Center
02:19PM 28.7792 -80.7758 133° Southeast 461 531 30,000  Level Miami Center
02:20PM 28.6803 -80.6539 132° Southeast 466 536 30,000  Level Miami Center
02:21PM 28.5914 -80.5422 133° Southeast 474 545 30,000  Level Miami Center
02:22PM 28.5003 -80.4306 132° Southeast 474 545 30,000  Level Miami Center
02:23PM 28.4214 -80.3314 132° Southeast 474 545 30,000  Level Miami Center
02:24PM 28.3342 -80.2225 136° Southeast 474 545 30,000  Level Miami Center
02:25PM 28.2306 -80.1108 150° Southeast 474 545 30,000  Level Miami Center
02:26PM 28.1194 -80.0372 150° Southeast 469 540 30,000  Level Miami Center
02:27PM 28.0083 -79.9636 151° Southeast 464 534 30,000  Level Miami Center
02:28PM 27.8908 -79.8897 149° Southeast 466 536 30,000  Level Miami Center
02:29PM 27.7942 -79.8239 150° Southeast 466 536 30,000  Level Miami Center
02:30PM 27.6706 -79.7433 150° Southeast 461 531 30,000  Level Miami Center
02:31PM 27.5592 -79.6703 149° Southeast 461 531 30,000  Level Miami Center
02:32PM 27.4458 -79.5947 151° Southeast 466 536 30,000 -900 Level Miami Center
02:33PM 27.3467 -79.5317 150° Southeast 460 529 28,200 -2,520 Descending Miami Center
02:34PM 27.2353 -79.4592 174° South 455 524 25,000 -2,640 Descending Miami Center
02:35PM 27.1039 -79.4444 192° South 429 494 23,000 -1,020 Descending Miami Center
02:36PM 26.9906 -79.4722 191° South 419 482 23,000 -480 Level Miami Center
02:37PM 26.8858 -79.4956 193° South 424 488 22,100 -1,080 Descending Miami Center
02:38PM 26.7578 -79.5275 195° South 430 495 20,900 -1,560 Descending Miami Center
02:39PM 26.6486 -79.5600 206° Southwest 430 495 19,000 -2,220 Descending Miami Center
02:40PM 26.5494 -79.6133 224° Southwest 416 479 16,500 -1,920 Descending Miami Center
02:41PM 26.5047 -79.6611 248° West 376 433 16,000 -540 Descending Miami Center
02:41PM 26.4936 -79.6911 236° Southwest 366 421 16,000  Level Miami Center
02:42PM 26.4333 -79.7892 235° Southwest 355 409 16,000 -180 Level Miami Center
02:43PM 26.3706 -79.8897 225° Southwest 348 400 15,700 -600 Descending Miami Center
02:44PM 26.3108 -79.9556 223° Southwest 350 403 14,800 -1,020 Descending Miami Center
02:45PM 26.2914 -79.9758 215° Southwest 343 395 14,600 -1,020 Descending Miami Center
02:45PM 26.2364 -80.0183 198° South 343 395 13,800 -1,020 Descending Miami Center
02:46PM 26.2131 -80.0269 195° South 346 398 13,600 -900 Descending Miami Center
02:46PM 26.1481 -80.0461 189° South 334 384 12,900 -1,140 Descending Miami Center
02:47PM 26.1250 -80.0500 195° South 322 371 12,500 -2,220 Descending Miami Center
02:47PM 26.0619 -80.0692 194° South 329 379 10,700 -1,560 Descending Miami Center
02:48PM 25.9797 -80.0925 240° Southwest 319 367 9,900 -660 Descending Miami Center
02:49PM 25.9492 -80.1517 269° West 230 265 9,400 -720 Descending Miami Center
02:50PM 25.9489 -80.1678 271° West 226 260 9,000 -1,140 Descending Miami Center
02:50PM 25.9497 -80.2186 253° West 208 239 8,300 -840 Descending Miami Center
02:51PM 25.9453 -80.2347 217° Southwest 208 239 8,200 -720 Descending Miami Center
02:52PM 25.9047 -80.2683 150° Southeast 204 235 7,400 -840 Descending Miami Center
02:53PM 25.8636 -80.2417 72° East 224 258 6,500 -1,140 Descending Miami Center
02:54PM 25.8842 -80.1731 95° East 220 253 5,200 -1,500 Descending Miami Center
02:55PM 25.8792 -80.1083 211° Southwest 211 243 3,500 -1,260 Descending Miami Center
02:56PM 25.8389 -80.1347 238° Southwest 198 228 2,700 -840 Descending Miami Center
02:57PM 25.8083 -80.1894 261° West 185 213 1,800 -1,020 Descending Miami Center
02:58PM 25.8011 -80.2400 269° West 166 191 600 -1,200 Descending Miami Center
03:06PM 25.7899 -81.2067 269° West  Level FlightAware Approximate